Terminal Aerodrome Forecast
Issued by NWS Brownsville, TX

Home | Current Version | Previous Version | Text Only | Print | Product List | Glossary On
Versions: 1 2 3 4 5 6 7 8 9 10 11 12 13 14 15 16 17 18
000
FTUS44 KBRO 171739
TAFBRO
TAF
KBRO 171739Z 1718/1818 34006KT P6SM OVC015
     FM180200 VRB05KT 5SM BR OVC007
     FM181200 29006KT 3SM BR OVC004=

USA.gov is the U.S. government's official web portal to all federal, state and local government web resources and services.